Robijn — PBEJ — position and weather

sailwx.info

Track history (hours):
 
Tides and Currents Weather Stations Pressure Air Temp Water Temp Dewpoint Dewpoint Depression Visibility Wind Speed Wind Dir Waves Ship Positions

Robijn

Last reported at 2015-May-24 22:33 UTC. Time now 2015-May-24 23:27 UTC.
Position N 54°01' E 007°36'.

Length 90 m; draft 5.1 m.

Type: Cargo ship. MMSI: 245909000.

Date/timePositionNaut miles runAvg speedWind from/ knotsBaromVisibWave heightAir tempDewpointWater temp
2015-May-24 22:33N 54°01' E 007°36'1110.9
2015-May-24 21:33N 54°02' E 007°54'1211.8
2015-May-24 20:33N 54°01' E 008°14'1313.3
2015-May-24 19:33N 53°58' E 008°36'1211.6
2015-May-24 18:33N 53°50' E 008°52'10 9.8
2015-May-24 17:33N 53°53' E 009°08'5 5.0
2015-May-24 16:31N 53°57' E 009°14'16 7.6
2015-May-24 14:27N 54°10' E 009°27'7 7.8
2015-May-24 13:33N 54°14' E 009°37'6 6.1
2015-May-24 12:33N 54°19' E 009°43'4 3.8
2015-May-24 11:33N 54°22' E 009°48'8 7.9
2015-May-24 10:33N 54°22' E 010°01'4 4.2
2015-May-24 09:33N 54°22' E 010°08'1 0.9
2015-May-24 08:33N 54°22' E 010°10'9 8.8
2015-May-24 07:33N 54°30' E 010°18'1110.6
2015-May-24 06:33N 54°34' E 010°35'1110.7
2015-May-24 05:33N 54°35' E 010°53'1110.7
2015-May-24 04:33N 54°36' E 011°11'1110.6
2015-May-24 03:33N 54°32' E 011°29'1010.5
2015-May-24 02:33N 54°29' E 011°46'1010.4
2015-May-24 01:33N 54°27' E 012°03'7810.5
2015-May-23 18:04N 55°05' E 014°02'510.3
2015-May-23 17:33N 55°09' E 014°09'1110.5
2015-May-23 16:33N 55°17' E 014°21'1110.7
2015-May-23 15:33N 55°25' E 014°33'1110.6
2015-May-23 14:33N 55°31' E 014°48'1110.8
2015-May-23 13:33N 55°37' E 015°04'1110.6
2015-May-23 12:33N 55°42' E 015°21'1210.6
2015-May-23 11:23N 55°48' E 015°40'32410.2
2015-May-22 03:31N 59°21' E 023°16'1410.6
2015-May-22 02:10N 59°27' E 023°41'1010.7
2015-May-22 01:13N 59°31' E 023°59'1110.7
2015-May-22 00:14N 59°36' E 024°18'710.6
2015-May-21 23:33N 59°40' E 024°30'5210.0
2015-May-21 18:24N 59°60' E 026°05'910.7
2015-May-21 17:33N 60°07' E 026°15'1010.3
2015-May-21 16:33N 60°16' E 026°26'1010.1
2015-May-21 15:33N 60°22' E 026°42'10 9.8
2015-May-21 14:33N 60°28' E 026°58'2 1.5
2015-May-21 13:31N 60°29' E 026°57'0 0.0
2015-May-21 12:31N 60°29' E 026°57'0 0.0
2015-May-21 11:31N 60°29' E 026°57'0 0.0
2015-May-21 10:31N 60°29' E 026°57'0 0.0
2015-May-21 09:31N 60°29' E 026°57'0 0.0
2015-May-21 08:31N 60°29' E 026°57'0 0.0
2015-May-21 07:31N 60°29' E 026°57'0 0.0
2015-May-21 06:31N 60°29' E 026°57'0 0.0
2015-May-21 05:31N 60°29' E 026°57'0 0.0
2015-May-21 04:31N 60°29' E 026°57'0 0.0
2015-May-21 03:31N 60°29' E 026°57'0 0.0
2015-May-21 02:31N 60°29' E 026°57'0 0.0
2015-May-21 01:31N 60°29' E 026°57'0 0.0
2015-May-21 00:31N 60°29' E 026°57'0 0.0
2015-May-20 23:31N 60°29' E 026°57'0 0.0
2015-May-20 22:31N 60°29' E 026°57'0 0.0
2015-May-20 21:31N 60°29' E 026°57'0 0.0
2015-May-20 20:31N 60°29' E 026°57'0 0.0
2015-May-20 19:31N 60°29' E 026°57'0 0.0
2015-May-20 18:31N 60°29' E 026°57'0 0.0
2015-May-20 17:31N 60°29' E 026°57'0 0.0
2015-May-20 16:31N 60°29' E 026°57'0 0.0
2015-May-20 15:31N 60°29' E 026°57'0 0.0
2015-May-20 14:31N 60°29' E 026°57'0 0.0
2015-May-20 13:31N 60°29' E 026°57'0 0.0
2015-May-20 12:31N 60°29' E 026°57'0 0.0
2015-May-20 11:31N 60°29' E 026°57'0 0.1
2015-May-20 10:31N 60°29' E 026°57'0 0.0
2015-May-20 09:31N 60°29' E 026°57'0 0.0
2015-May-20 08:31N 60°29' E 026°57'0 0.0
2015-May-20 07:32N 60°29' E 026°57'5 4.8
2015-May-20 06:33N 60°29' E 027°06'4 1.2
2015-May-20 03:27N 60°32' E 027°10'0 0.0
2015-May-20 02:21N 60°32' E 027°10'0 0.0
2015-May-20 01:27N 60°32' E 027°10'0 0.0
2015-May-20 00:33N 60°32' E 027°10'0 0.0
2015-May-19 23:33N 60°32' E 027°10'0 0.0
2015-May-19 22:33N 60°32' E 027°10'0 0.0
2015-May-19 21:33N 60°32' E 027°10'0 0.0
2015-May-19 20:33N 60°32' E 027°10'0 0.0
2015-May-19 18:03N 60°32' E 027°10'0 0.0
2015-May-19 17:33N 60°32' E 027°10'0 0.0
2015-May-19 15:21N 60°32' E 027°10'0 0.0
2015-May-19 14:33N 60°32' E 027°10'0 0.0
2015-May-19 13:30N 60°32' E 027°10'0 0.0
2015-May-19 12:27N 60°32' E 027°10'0 0.0
2015-May-19 11:27N 60°32' E 027°10'0 0.0
2015-May-19 10:33N 60°32' E 027°10'0 0.0
2015-May-19 09:33N 60°32' E 027°10'0 0.0
2015-May-19 08:21N 60°32' E 027°10'0 0.0
2015-May-19 07:24N 60°32' E 027°10'0 0.0
2015-May-19 06:30N 60°32' E 027°10'0 0.0
2015-May-19 05:27N 60°32' E 027°10'0 0.0
2015-May-19 04:21N 60°32' E 027°10'0 0.0
2015-May-19 03:30N 60°32' E 027°10'0 0.0
2015-May-19 02:03N 60°32' E 027°10'0 0.0
2015-May-19 01:33N 60°32' E 027°10'0 0.0
2015-May-19 00:33N 60°32' E 027°10'0 0.0
2015-May-18 23:33N 60°32' E 027°10'0 0.0
2015-May-18 22:24N 60°32' E 027°10'0 0.0
2015-May-18 21:30N 60°32' E 027°10'0 0.0
2015-May-18 20:27N 60°32' E 027°10'0 0.0
2015-May-18 19:33N 60°32' E 027°10'0 0.0
2015-May-18 18:33N 60°32' E 027°10'0 0.0
2015-May-18 17:33N 60°32' E 027°10'0 0.0
2015-May-18 16:33N 60°32' E 027°10'0 0.0
2015-May-18 15:33N 60°32' E 027°10'0 0.0
2015-May-18 14:33N 60°32' E 027°10'0 0.0
2015-May-18 13:33N 60°32' E 027°10'0 0.0
2015-May-18 12:33N 60°32' E 027°10'0 0.0
2015-May-18 11:27N 60°32' E 027°10'0 0.0
2015-May-18 09:09N 60°32' E 027°10'0 0.0
2015-May-18 08:27N 60°32' E 027°10'0 0.0
2015-May-16 15:28N 60°32' E 027°10'3 3.7
2015-May-16 14:33N 60°29' E 027°07'8 8.3
2015-May-16 13:33N 60°24' E 026°53'10 9.9
2015-May-16 12:33N 60°19' E 026°36'10 9.7
2015-May-16 11:33N 60°12' E 026°23'10 9.7
2015-May-16 10:33N 60°04' E 026°11'49 9.5
2015-May-16 05:25N 59°45' E 024°42'8 9.8
2015-May-16 04:33N 59°43' E 024°26'13 9.8
2015-May-16 03:15N 59°37' E 024°03'7 9.8
2015-May-16 02:32N 59°34' E 023°51'11 9.7
2015-May-16 01:25N 59°29' E 023°32'  
Track history (hours):
 
Tides and Currents Weather Stations Pressure Air Temp Water Temp Dewpoint Dewpoint Depression Visibility Wind Speed Wind Dir Waves Ship Positions

Robijn

Last reported at 2015-May-24 22:33 UTC. Time now 2015-May-24 23:27 UTC.
Position N 54°01' E 007°36'.

Length 90 m; draft 5.1 m.

Type: Cargo ship. MMSI: 245909000.

Date/timePositionNaut miles runAvg speedWind from/ knotsBaromVisibWave heightAir tempDewpointWater temp
2015-May-24 22:33N 54°01' E 007°36'1110.9
2015-May-24 21:33N 54°02' E 007°54'1211.8
2015-May-24 20:33N 54°01' E 008°14'1313.3
2015-May-24 19:33N 53°58' E 008°36'1211.6
2015-May-24 18:33N 53°50' E 008°52'10 9.8
2015-May-24 17:33N 53°53' E 009°08'5 5.0
2015-May-24 16:31N 53°57' E 009°14'16 7.6
2015-May-24 14:27N 54°10' E 009°27'7 7.8
2015-May-24 13:33N 54°14' E 009°37'6 6.1
2015-May-24 12:33N 54°19' E 009°43'4 3.8
2015-May-24 11:33N 54°22' E 009°48'8 7.9
2015-May-24 10:33N 54°22' E 010°01'4 4.2
2015-May-24 09:33N 54°22' E 010°08'1 0.9
2015-May-24 08:33N 54°22' E 010°10'9 8.8
2015-May-24 07:33N 54°30' E 010°18'1110.6
2015-May-24 06:33N 54°34' E 010°35'1110.7
2015-May-24 05:33N 54°35' E 010°53'1110.7
2015-May-24 04:33N 54°36' E 011°11'1110.6
2015-May-24 03:33N 54°32' E 011°29'1010.5
2015-May-24 02:33N 54°29' E 011°46'1010.4
2015-May-24 01:33N 54°27' E 012°03'7810.5
2015-May-23 18:04N 55°05' E 014°02'510.3
2015-May-23 17:33N 55°09' E 014°09'1110.5
2015-May-23 16:33N 55°17' E 014°21'1110.7
2015-May-23 15:33N 55°25' E 014°33'1110.6
2015-May-23 14:33N 55°31' E 014°48'1110.8
2015-May-23 13:33N 55°37' E 015°04'1110.6
2015-May-23 12:33N 55°42' E 015°21'1210.6
2015-May-23 11:23N 55°48' E 015°40'32410.2
2015-May-22 03:31N 59°21' E 023°16'1410.6
2015-May-22 02:10N 59°27' E 023°41'1010.7
2015-May-22 01:13N 59°31' E 023°59'1110.7
2015-May-22 00:14N 59°36' E 024°18'710.6
2015-May-21 23:33N 59°40' E 024°30'5210.0
2015-May-21 18:24N 59°60' E 026°05'910.7
2015-May-21 17:33N 60°07' E 026°15'1010.3
2015-May-21 16:33N 60°16' E 026°26'1010.1
2015-May-21 15:33N 60°22' E 026°42'10 9.8
2015-May-21 14:33N 60°28' E 026°58'2 1.5
2015-May-21 13:31N 60°29' E 026°57'0 0.0
2015-May-21 12:31N 60°29' E 026°57'0 0.0
2015-May-21 11:31N 60°29' E 026°57'0 0.0
2015-May-21 10:31N 60°29' E 026°57'0 0.0
2015-May-21 09:31N 60°29' E 026°57'0 0.0
2015-May-21 08:31N 60°29' E 026°57'0 0.0
2015-May-21 07:31N 60°29' E 026°57'0 0.0
2015-May-21 06:31N 60°29' E 026°57'0 0.0
2015-May-21 05:31N 60°29' E 026°57'0 0.0
2015-May-21 04:31N 60°29' E 026°57'0 0.0
2015-May-21 03:31N 60°29' E 026°57'0 0.0
2015-May-21 02:31N 60°29' E 026°57'0 0.0
2015-May-21 01:31N 60°29' E 026°57'0 0.0
2015-May-21 00:31N 60°29' E 026°57'0 0.0
2015-May-20 23:31N 60°29' E 026°57'0 0.0
2015-May-20 22:31N 60°29' E 026°57'0 0.0
2015-May-20 21:31N 60°29' E 026°57'0 0.0
2015-May-20 20:31N 60°29' E 026°57'0 0.0
2015-May-20 19:31N 60°29' E 026°57'0 0.0
2015-May-20 18:31N 60°29' E 026°57'0 0.0
2015-May-20 17:31N 60°29' E 026°57'0 0.0
2015-May-20 16:31N 60°29' E 026°57'0 0.0
2015-May-20 15:31N 60°29' E 026°57'0 0.0
2015-May-20 14:31N 60°29' E 026°57'0 0.0
2015-May-20 13:31N 60°29' E 026°57'0 0.0
2015-May-20 12:31N 60°29' E 026°57'0 0.0
2015-May-20 11:31N 60°29' E 026°57'0 0.1
2015-May-20 10:31N 60°29' E 026°57'0 0.0
2015-May-20 09:31N 60°29' E 026°57'0 0.0
2015-May-20 08:31N 60°29' E 026°57'0 0.0
2015-May-20 07:32N 60°29' E 026°57'5 4.8
2015-May-20 06:33N 60°29' E 027°06'4 1.2
2015-May-20 03:27N 60°32' E 027°10'0 0.0
2015-May-20 02:21N 60°32' E 027°10'0 0.0
2015-May-20 01:27N 60°32' E 027°10'0 0.0
2015-May-20 00:33N 60°32' E 027°10'0 0.0
2015-May-19 23:33N 60°32' E 027°10'0 0.0
2015-May-19 22:33N 60°32' E 027°10'0 0.0
2015-May-19 21:33N 60°32' E 027°10'0 0.0
2015-May-19 20:33N 60°32' E 027°10'0 0.0
2015-May-19 18:03N 60°32' E 027°10'0 0.0
2015-May-19 17:33N 60°32' E 027°10'0 0.0
2015-May-19 15:21N 60°32' E 027°10'0 0.0
2015-May-19 14:33N 60°32' E 027°10'0 0.0
2015-May-19 13:30N 60°32' E 027°10'0 0.0
2015-May-19 12:27N 60°32' E 027°10'0 0.0
2015-May-19 11:27N 60°32' E 027°10'0 0.0
2015-May-19 10:33N 60°32' E 027°10'0 0.0
2015-May-19 09:33N 60°32' E 027°10'0 0.0
2015-May-19 08:21N 60°32' E 027°10'0 0.0
2015-May-19 07:24N 60°32' E 027°10'0 0.0
2015-May-19 06:30N 60°32' E 027°10'0 0.0
2015-May-19 05:27N 60°32' E 027°10'0 0.0
2015-May-19 04:21N 60°32' E 027°10'0 0.0
2015-May-19 03:30N 60°32' E 027°10'0 0.0
2015-May-19 02:03N 60°32' E 027°10'0 0.0
2015-May-19 01:33N 60°32' E 027°10'0 0.0
2015-May-19 00:33N 60°32' E 027°10'0 0.0
2015-May-18 23:33N 60°32' E 027°10'0 0.0
2015-May-18 22:24N 60°32' E 027°10'0 0.0
2015-May-18 21:30N 60°32' E 027°10'0 0.0
2015-May-18 20:27N 60°32' E 027°10'0 0.0
2015-May-18 19:33N 60°32' E 027°10'0 0.0
2015-May-18 18:33N 60°32' E 027°10'0 0.0
2015-May-18 17:33N 60°32' E 027°10'0 0.0
2015-May-18 16:33N 60°32' E 027°10'0 0.0
2015-May-18 15:33N 60°32' E 027°10'0 0.0
2015-May-18 14:33N 60°32' E 027°10'0 0.0
2015-May-18 13:33N 60°32' E 027°10'0 0.0
2015-May-18 12:33N 60°32' E 027°10'0 0.0
2015-May-18 11:27N 60°32' E 027°10'0 0.0
2015-May-18 09:09N 60°32' E 027°10'0 0.0
2015-May-18 08:27N 60°32' E 027°10'0 0.0
2015-May-16 15:28N 60°32' E 027°10'3 3.7
2015-May-16 14:33N 60°29' E 027°07'8 8.3
2015-May-16 13:33N 60°24' E 026°53'10 9.9
2015-May-16 12:33N 60°19' E 026°36'10 9.7
2015-May-16 11:33N 60°12' E 026°23'10 9.7
2015-May-16 10:33N 60°04' E 026°11'49 9.5
2015-May-16 05:25N 59°45' E 024°42'8 9.8
2015-May-16 04:33N 59°43' E 024°26'13 9.8
2015-May-16 03:15N 59°37' E 024°03'7 9.8
2015-May-16 02:32N 59°34' E 023°51'11 9.7
2015-May-16 01:25N 59°29' E 023°32'  

Dump ship's entire track history